• Join FlightAware (Why Join?)
  • Login
  • US Flag 
11:39AM EDT


 

Airport Tracker/Info


-or-


 

Live Flight TrackerFlight Track Log ✈ RPA3228 ✈ 12-Jul-2013 ✈ KDCA - KBUF

Flight Track Log - Related Links

Times and Time Zones

All times are in EDT time to prevent confusion due to time zone crossing. See the RPA3228 flight status page for this flight to view local times or setup timezone preferences in your user account.

Time Position Orientation Groundspeed Altitude Reporting Facility
EDT Latitude Longitude Course Direction KTS MPH feet Rate Location/Type
10:31AM 38.8833 -77.0500 337° Northwest 154 177 1,500  Level Potomac TRACON
10:32AM 38.9167 -77.1000 311° West 227 261 3,100 2,280 Climbing Potomac TRACON
10:33AM 39.0812 -77.1572 339° North  Level FlightAware Approximate
10:34AM 39.1617 -77.2005 330° Northwest  Level FlightAware Approximate
10:35AM 39.2447 -77.2396 337° Northwest  Level FlightAware Approximate
10:35AM 39.0056 -77.2986 300° West 279 321 9,500  Level Washington Center
10:36AM 39.3265 -77.2850 337° Northwest  Level FlightAware Approximate
10:36AM 39.0331 -77.4033 289° West 295 339 12,100  Level Washington Center
10:37AM 39.1219 -77.4536 336° Northwest 290 334 15,100 2,520 Climbing Washington Center
10:38AM 39.2092 -77.4800 347° North 296 341 17,100 2,160 Climbing Washington Center
10:40AM 39.4394 -77.4678 North 355 409 22,300 2,100 Climbing New York Center
10:41AM 39.5461 -77.4644 North 366 421 24,000 1,320 Climbing New York Center
10:42AM 39.6567 -77.5019 345° North 382 440 25,000 480 Climbing New York Center
10:43AM 39.7772 -77.5461 344° North 412 474 25,000 60 Level New York Center
10:44AM 39.8958 -77.5872 345° North 433 498 25,200 480 Climbing New York Center
10:45AM 40.0142 -77.6314 344° North 443 510 26,000 360 Climbing New York Center
10:46AM 40.1367 -77.6733 345° North 450 518 26,000  Level New York Center
10:47AM 40.2592 -77.7181 344° North 450 518 26,000  Level New York Center
10:48AM 40.3756 -77.7597 345° North 450 518 26,000  Level New York Center
10:49AM 40.4981 -77.8050 344° North 450 518 26,000  Level New York Center
10:51AM 40.7758 -77.9097 344° North 446 513 26,000  Level Cleveland Center
10:52AM 40.8894 -77.9489 345° North 441 507 26,000  Level Cleveland Center
10:53AM 41.0092 -77.9939 344° North 441 507 26,000  Level Cleveland Center
10:54AM 41.1247 -78.0333 346° North 441 507 26,000  Level Cleveland Center
10:55AM 41.2364 -78.0786 343° North 430 495 26,000  Level Cleveland Center
10:56AM 41.3436 -78.1189 344° North 416 479 26,000  Level Cleveland Center
10:57AM 41.4528 -78.1589 345° North 410 472 26,000  Level Cleveland Center
10:58AM 41.5494 -78.1942 345° North 403 464 26,000 -180 Level Cleveland Center
10:59AM 41.6567 -78.2347 344° North 403 464 25,700 -840 Descending Cleveland Center
11:00AM 41.7597 -78.2756 344° North 403 464 24,400 -1,620 Descending Cleveland Center
11:01AM 41.8606 -78.3136 344° North 393 452 22,500 -2,040 Descending Cleveland Center
11:02AM 41.9550 -78.3494 344° North 372 428 20,400 -1,980 Descending Cleveland Center
11:03AM 42.0517 -78.3881 343° North 362 417 18,600 -1,740 Descending Cleveland Center
11:04AM 42.1378 -78.4214 344° North 344 396 17,000 -3,840 Descending Cleveland Center
11:05AM 42.2281 -78.4547 345° North 334 384 11,000 -1,980 Descending Cleveland Center
11:06AM 42.3161 -78.4883 344° North 334 384 13,100 180 Climbing Cleveland Center
11:07AM 42.4064 -78.5219 345° North 329 379 11,400 -1,620 Descending Cleveland Center
11:08AM 42.4925 -78.5558 344° North 323 372 10,000 -1,500 Descending Cleveland Center
11:09AM 42.5747 -78.6094 334° Northwest 305 351 8,400 -1,740 Descending Cleveland Center
11:10AM 42.6464 -78.6553 335° Northwest 290 334 6,600 -1,620 Descending Cleveland Center
11:11AM 42.7117 -78.7069 330° Northwest 279 321 5,200 -900 Descending Cleveland Center
11:12AM 42.7667 -78.7450 333° Northwest 260 299 4,900 -300 Descending Cleveland Center